createdAt,value
2017-10-19T00:02:25.430Z,10.50
2017-10-19T00:04:51.761Z,10.40
2017-10-19T00:07:18.113Z,10.40
2017-10-19T00:09:45.135Z,10.30
2017-10-19T00:12:11.508Z,10.30
2017-10-19T00:14:37.927Z,10.30
2017-10-19T00:17:04.349Z,10.30
2017-10-19T00:19:30.667Z,10.20
2017-10-19T00:21:57.082Z,10.30
2017-10-19T00:24:23.436Z,10.20
2017-10-19T00:26:49.766Z,10.20
2017-10-19T00:29:16.103Z,10.20
2017-10-19T00:31:42.384Z,10.20
2017-10-19T00:34:08.698Z,10.10
2017-10-19T00:36:35.816Z,10.10
2017-10-19T00:39:02.139Z,10.10
2017-10-19T00:41:28.472Z,10.10
2017-10-19T00:43:54.859Z,10.10
2017-10-19T00:46:21.410Z,10.10
2017-10-19T00:48:47.729Z,10.00
2017-10-19T00:51:14.107Z,10.00
2017-10-19T00:53:40.446Z,9.90
2017-10-19T00:56:06.805Z,9.90
2017-10-19T00:58:33.113Z,10.00
2017-10-19T01:00:59.459Z,10.00
2017-10-19T01:03:26.559Z,10.00
2017-10-19T01:05:52.959Z,10.00
2017-10-19T01:08:19.399Z,9.90
2017-10-19T01:10:45.763Z,10.00
2017-10-19T01:13:12.113Z,9.90
2017-10-19T01:15:38.460Z,9.90
2017-10-19T01:18:04.904Z,9.80
2017-10-19T01:20:31.945Z,9.90
2017-10-19T01:22:59.094Z,9.80
2017-10-19T01:25:26.444Z,9.80
2017-10-19T01:27:52.827Z,9.80
2017-10-19T01:30:19.783Z,9.80
2017-10-19T01:32:46.258Z,9.70
2017-10-19T01:35:13.337Z,9.70
2017-10-19T01:37:40.605Z,9.70
2017-10-19T01:40:06.992Z,9.60
2017-10-19T01:42:33.353Z,9.70
2017-10-19T01:45:00.433Z,9.70
2017-10-19T01:47:26.781Z,9.70
2017-10-19T01:49:59.078Z,9.70
2017-10-19T01:52:25.472Z,9.60
2017-10-19T01:54:51.904Z,9.60
2017-10-19T01:57:18.266Z,9.60
2017-10-19T01:59:44.601Z,9.50
2017-10-19T02:02:10.976Z,9.50
2017-10-19T02:04:37.307Z,9.50
2017-10-19T02:07:03.804Z,9.50
2017-10-19T02:09:30.127Z,9.50
2017-10-19T02:11:56.459Z,9.50
2017-10-19T02:14:22.787Z,9.40
2017-10-19T02:16:49.137Z,9.40
2017-10-19T02:19:15.489Z,9.30
2017-10-19T02:21:42.573Z,9.30
2017-10-19T02:24:09.111Z,9.30
2017-10-19T02:26:35.466Z,9.30
2017-10-19T02:29:01.788Z,9.30
2017-10-19T02:31:28.150Z,9.20
2017-10-19T02:33:55.275Z,9.10
2017-10-19T02:36:21.618Z,9.10
2017-10-19T02:38:47.989Z,9.10
2017-10-19T02:41:14.350Z,9.10
2017-10-19T02:43:40.702Z,9.00
2017-10-19T02:46:07.048Z,9.00
2017-10-19T02:48:33.395Z,9.00
2017-10-19T02:50:59.742Z,8.90
2017-10-19T02:53:26.132Z,8.90
2017-10-19T02:55:52.598Z,8.80
2017-10-19T02:58:18.917Z,8.80
2017-10-19T03:00:45.979Z,8.80
2017-10-19T03:03:12.354Z,8.80
2017-10-19T03:05:38.804Z,8.80
2017-10-19T03:08:05.252Z,8.70
2017-10-19T03:10:31.602Z,8.80
2017-10-19T03:12:58.748Z,8.70
2017-10-19T03:15:25.867Z,8.80
2017-10-19T03:17:53.185Z,8.80
2017-10-19T03:20:19.611Z,8.80
2017-10-19T03:22:45.929Z,8.80
2017-10-19T03:25:13.005Z,8.70
2017-10-19T03:27:39.487Z,8.70
2017-10-19T03:30:05.937Z,8.70
2017-10-19T03:32:32.441Z,8.70
2017-10-19T03:34:58.841Z,8.70
2017-10-19T03:37:25.206Z,8.70
2017-10-19T03:39:52.449Z,8.70
2017-10-19T03:42:19.826Z,8.60
2017-10-19T03:44:46.345Z,8.60
2017-10-19T03:47:12.898Z,8.60
2017-10-19T03:49:39.532Z,8.60
2017-10-19T03:52:06.061Z,8.60
2017-10-19T03:54:32.612Z,8.60
2017-10-19T03:56:58.965Z,8.70
2017-10-19T03:59:26.269Z,8.70
2017-10-19T04:01:52.620Z,8.70
2017-10-19T04:04:18.958Z,8.70
2017-10-19T04:06:45.335Z,8.70
2017-10-19T04:09:11.663Z,8.70
2017-10-19T04:11:37.988Z,8.60
2017-10-19T04:14:04.401Z,8.60
2017-10-19T04:16:30.741Z,8.60
2017-10-19T04:18:57.191Z,8.50
2017-10-19T04:21:23.635Z,8.50
2017-10-19T04:23:50.073Z,8.50
2017-10-19T04:26:16.463Z,8.50
2017-10-19T04:28:43.652Z,8.40
2017-10-19T04:31:10.066Z,8.40
2017-10-19T04:33:37.276Z,8.40
2017-10-19T04:36:03.762Z,8.40
2017-10-19T04:38:30.178Z,8.40
2017-10-19T04:40:56.813Z,8.40
2017-10-19T04:43:30.330Z,8.40
2017-10-19T04:45:56.889Z,8.30
2017-10-19T04:48:23.315Z,8.40
2017-10-19T04:50:49.960Z,8.30
2017-10-19T04:53:16.325Z,8.30
2017-10-19T04:55:43.700Z,8.20
2017-10-19T04:58:10.033Z,8.20
2017-10-19T05:00:36.408Z,8.20
2017-10-19T05:03:02.748Z,8.20
2017-10-19T05:05:29.112Z,8.20
2017-10-19T05:07:55.469Z,8.20
2017-10-19T05:10:22.580Z,8.20
2017-10-19T05:12:48.958Z,8.20
2017-10-19T05:15:15.596Z,8.20
2017-10-19T05:17:42.082Z,8.30
2017-10-19T05:20:08.546Z,8.30
2017-10-19T05:22:34.994Z,8.20
2017-10-19T05:25:01.550Z,8.10
2017-10-19T05:27:27.944Z,8.10
2017-10-19T05:29:54.387Z,8.00
2017-10-19T05:32:21.474Z,8.10
2017-10-19T05:34:47.940Z,8.10
2017-10-19T05:37:16.189Z,8.10
2017-10-19T05:39:42.555Z,8.10
2017-10-19T05:42:09.257Z,8.20
2017-10-19T05:44:35.602Z,8.20
2017-10-19T05:47:01.968Z,8.30
2017-10-19T05:49:28.278Z,8.30
2017-10-19T05:51:54.649Z,8.30
2017-10-19T05:54:21.947Z,8.40
2017-10-19T05:56:48.444Z,8.30
2017-10-19T05:59:14.858Z,8.40
2017-10-19T06:01:41.302Z,8.50
2017-10-19T06:04:07.757Z,8.50
2017-10-19T06:06:34.172Z,8.60
2017-10-19T06:09:01.678Z,8.70
2017-10-19T06:11:28.031Z,8.60
2017-10-19T06:13:54.378Z,8.70
2017-10-19T06:16:20.729Z,8.80
2017-10-19T06:18:47.807Z,8.90
2017-10-19T06:21:14.177Z,8.90
2017-10-19T06:23:40.627Z,9.00
2017-10-19T06:26:07.345Z,9.00
2017-10-19T06:28:33.687Z,9.10
2017-10-19T06:31:00.195Z,9.10
2017-10-19T06:33:26.561Z,9.20
2017-10-19T06:35:53.822Z,9.30
2017-10-19T06:38:20.178Z,9.30
2017-10-19T06:40:47.264Z,9.50
2017-10-19T06:43:14.658Z,9.50
2017-10-19T06:45:41.762Z,9.70
2017-10-19T06:48:08.210Z,9.70
2017-10-19T06:50:34.592Z,9.90
2017-10-19T06:53:01.891Z,10.10
2017-10-19T06:55:28.322Z,10.10
2017-10-19T06:57:55.744Z,10.20
2017-10-19T07:00:22.269Z,10.40
2017-10-19T07:02:49.362Z,10.70
2017-10-19T07:05:15.712Z,10.70
2017-10-19T07:07:42.081Z,10.80
2017-10-19T07:10:09.187Z,11.10
2017-10-19T07:12:35.543Z,11.10
2017-10-19T07:15:01.923Z,11.30
2017-10-19T07:17:28.289Z,11.30
2017-10-19T07:19:54.585Z,11.50
2017-10-19T07:22:21.008Z,11.60
2017-10-19T07:24:47.387Z,11.70
2017-10-19T07:27:13.666Z,11.90
2017-10-19T07:29:40.973Z,12.20
2017-10-19T07:32:07.267Z,12.20
2017-10-19T07:34:33.566Z,12.20
2017-10-19T07:37:00.580Z,12.40
2017-10-19T07:39:26.883Z,12.40
2017-10-19T07:41:53.242Z,12.40
2017-10-19T07:44:19.552Z,12.10
2017-10-19T07:46:46.301Z,12.30
2017-10-19T07:49:12.648Z,12.50
2017-10-19T07:51:38.980Z,12.40
2017-10-19T07:54:05.458Z,12.60
2017-10-19T07:56:32.532Z,12.90
2017-10-19T07:58:58.896Z,12.90
2017-10-19T08:01:25.237Z,13.20
2017-10-19T08:03:52.187Z,13.20
2017-10-19T08:06:18.510Z,13.20
2017-10-19T08:08:44.793Z,13.10
2017-10-19T08:11:11.177Z,13.40
2017-10-19T08:13:37.473Z,13.30
2017-10-19T08:16:04.261Z,13.40
2017-10-19T08:18:30.567Z,13.40
2017-10-19T08:20:56.963Z,13.50
2017-10-19T08:23:23.290Z,13.60
2017-10-19T08:25:49.672Z,13.80
2017-10-19T08:28:16.278Z,13.90
2017-10-19T08:30:42.820Z,14.20
2017-10-19T08:33:09.191Z,14.30
2017-10-19T08:35:35.606Z,14.20
2017-10-19T08:38:02.016Z,14.40
2017-10-19T08:40:28.404Z,14.40
2017-10-19T08:42:55.477Z,14.20
2017-10-19T08:45:21.852Z,14.20
2017-10-19T08:47:48.280Z,14.50
2017-10-19T08:50:14.690Z,14.80
2017-10-19T08:52:40.992Z,14.80
2017-10-19T08:55:08.112Z,14.80
2017-10-19T08:57:34.488Z,14.80
2017-10-19T09:00:00.847Z,14.90
2017-10-19T09:02:27.135Z,15.00
2017-10-19T09:04:54.185Z,15.20
2017-10-19T09:07:20.474Z,15.20
2017-10-19T09:09:46.815Z,15.40
2017-10-19T09:12:13.103Z,15.50
2017-10-19T09:14:39.466Z,15.60
2017-10-19T09:17:05.881Z,15.60
2017-10-19T09:19:32.233Z,15.80
2017-10-19T09:21:58.591Z,16.10
2017-10-19T09:24:25.677Z,16.30
2017-10-19T09:26:52.050Z,16.30
2017-10-19T09:29:18.347Z,16.30
2017-10-19T09:31:44.798Z,16.30
2017-10-19T09:34:11.073Z,16.20
2017-10-19T09:36:38.256Z,16.20
2017-10-19T09:39:04.687Z,16.20
2017-10-19T09:41:30.957Z,16.50
2017-10-19T09:43:57.340Z,16.70
2017-10-19T09:46:23.639Z,16.80
2017-10-19T09:48:50.009Z,16.90
2017-10-19T09:51:16.463Z,17.10
2017-10-19T09:53:42.938Z,16.90
2017-10-19T09:56:10.138Z,17.40
2017-10-19T09:58:36.508Z,17.40
2017-10-19T10:01:02.842Z,17.50
2017-10-19T10:03:29.267Z,17.50
2017-10-19T10:05:55.706Z,17.40
2017-10-19T10:08:22.036Z,17.40
2017-10-19T10:10:48.488Z,17.30
2017-10-19T10:13:14.832Z,17.30
2017-10-19T10:15:42.014Z,17.60
2017-10-19T10:18:08.373Z,17.60
2017-10-19T10:20:34.659Z,17.60
2017-10-19T10:23:01.049Z,17.80
2017-10-19T10:25:27.474Z,17.80
2017-10-19T10:27:53.932Z,17.80
2017-10-19T10:30:20.296Z,17.80
2017-10-19T10:32:46.651Z,17.80
2017-10-19T10:35:12.961Z,17.80
2017-10-19T10:37:39.354Z,18.00
2017-10-19T10:40:06.407Z,18.40
2017-10-19T10:42:32.746Z,18.30
2017-10-19T10:44:59.887Z,18.50
2017-10-19T10:47:26.318Z,18.50
2017-10-19T10:49:53.418Z,18.60
2017-10-19T10:52:19.732Z,18.50
2017-10-19T10:54:46.217Z,18.70
2017-10-19T10:57:12.548Z,18.80
2017-10-19T10:59:39.804Z,18.90
2017-10-19T11:02:06.370Z,19.40
2017-10-19T11:04:33.490Z,21.30
2017-10-19T11:06:59.820Z,21.30
2017-10-19T11:09:26.204Z,22.70
2017-10-19T11:11:52.496Z,24.00
2017-10-19T11:14:18.824Z,24.70
2017-10-19T11:16:45.150Z,26.00
2017-10-19T11:19:11.516Z,27.50
2017-10-19T11:21:38.638Z,28.40
2017-10-19T11:24:04.967Z,28.40
2017-10-19T11:26:31.442Z,29.50
2017-10-19T11:28:57.756Z,30.40
2017-10-19T11:31:24.853Z,30.90
2017-10-19T11:33:51.134Z,30.80
2017-10-19T11:36:18.182Z,32.50
2017-10-19T11:38:45.255Z,33.60
2017-10-19T11:41:11.575Z,33.60
2017-10-19T11:43:38.669Z,33.30
2017-10-19T11:46:04.960Z,33.30
2017-10-19T11:48:31.258Z,34.40
2017-10-19T11:50:58.405Z,34.80
2017-10-19T11:53:24.762Z,35.50
2017-10-19T11:55:51.110Z,35.60
2017-10-19T11:58:17.471Z,35.40
2017-10-19T12:00:43.925Z,35.20
2017-10-19T12:03:10.308Z,36.30
2017-10-19T12:05:37.425Z,37.20
2017-10-19T12:08:05.464Z,37.10
2017-10-19T12:10:31.937Z,37.10
2017-10-19T12:12:59.075Z,37.50
2017-10-19T12:15:25.441Z,37.40
2017-10-19T12:17:51.760Z,38.70
2017-10-19T12:20:19.910Z,37.30
2017-10-19T12:22:46.360Z,37.20
2017-10-19T12:25:13.420Z,36.20
2017-10-19T12:27:39.750Z,36.10
2017-10-19T12:30:06.938Z,35.40
2017-10-19T12:32:33.306Z,35.40
2017-10-19T12:34:59.619Z,36.10
2017-10-19T12:37:25.969Z,36.10
2017-10-19T12:39:52.300Z,37.40
2017-10-19T12:42:18.566Z,37.40
2017-10-19T12:44:44.883Z,37.80
2017-10-19T12:47:12.003Z,37.30
2017-10-19T12:49:38.342Z,37.30
2017-10-19T12:52:04.640Z,37.00
2017-10-19T12:54:31.206Z,37.70
2017-10-19T12:56:57.673Z,38.30
2017-10-19T12:59:24.026Z,37.80
2017-10-19T13:01:50.637Z,36.90
2017-10-19T13:04:17.891Z,35.50
2017-10-19T13:06:44.329Z,35.50
2017-10-19T13:09:10.693Z,35.40
2017-10-19T13:11:37.279Z,35.60
2017-10-19T13:14:04.393Z,35.10
2017-10-19T13:16:30.745Z,35.00
2017-10-19T13:18:57.165Z,36.10
2017-10-19T13:21:23.506Z,37.20
2017-10-19T13:23:49.828Z,36.60
2017-10-19T13:26:16.168Z,36.70
2017-10-19T13:28:43.255Z,37.60
2017-10-19T13:31:10.142Z,38.30
2017-10-19T13:33:36.414Z,38.00
2017-10-19T13:36:04.380Z,36.30
2017-10-19T13:38:31.467Z,36.50
2017-10-19T13:40:57.811Z,36.50
2017-10-19T13:43:31.234Z,35.00
2017-10-19T13:45:57.697Z,35.80
2017-10-19T13:48:24.890Z,36.90
2017-10-19T13:50:51.220Z,36.90
2017-10-19T13:53:17.902Z,36.60
2017-10-19T13:55:44.240Z,35.70
2017-10-19T13:58:10.558Z,34.20
2017-10-19T14:00:37.203Z,34.00
2017-10-19T14:03:03.558Z,34.90
2017-10-19T14:05:30.691Z,35.90
2017-10-19T14:07:57.947Z,34.50
2017-10-19T14:10:24.381Z,34.40
2017-10-19T14:12:50.929Z,34.40
2017-10-19T14:15:19.010Z,34.20
2017-10-19T14:17:45.324Z,34.20
2017-10-19T14:20:12.435Z,34.10
2017-10-19T14:22:38.793Z,34.00
2017-10-19T14:25:05.099Z,33.70
2017-10-19T14:27:31.457Z,33.60
2017-10-19T14:29:57.964Z,33.50
2017-10-19T14:32:24.303Z,34.30
2017-10-19T14:34:50.625Z,34.30
2017-10-19T14:37:16.886Z,33.80
2017-10-19T14:39:43.277Z,32.80
2017-10-19T14:42:09.627Z,33.10
2017-10-19T14:44:35.958Z,33.70
2017-10-19T14:47:02.341Z,32.80
2017-10-19T14:49:28.774Z,32.10
2017-10-19T14:51:55.106Z,30.90
2017-10-19T14:54:21.440Z,28.80
2017-10-19T14:56:47.842Z,27.30
2017-10-19T14:59:14.983Z,23.70
2017-10-19T15:01:41.498Z,23.50
2017-10-19T15:04:07.910Z,22.30
2017-10-19T15:06:34.329Z,21.70
2017-10-19T15:09:00.730Z,21.00
2017-10-19T15:11:27.019Z,20.40
2017-10-19T15:13:53.306Z,20.20
2017-10-19T15:16:20.329Z,19.50
2017-10-19T15:18:46.760Z,19.40
2017-10-19T15:21:13.287Z,19.30
2017-10-19T15:23:39.790Z,18.90
2017-10-19T15:26:06.101Z,18.80
2017-10-19T15:28:32.819Z,18.40
2017-10-19T15:30:59.867Z,17.90
2017-10-19T15:33:26.906Z,17.50
2017-10-19T15:35:53.195Z,17.50
2017-10-19T15:38:19.526Z,17.40
2017-10-19T15:40:45.861Z,17.20
2017-10-19T15:43:12.258Z,16.90
2017-10-19T15:45:39.381Z,16.70
2017-10-19T15:48:05.690Z,16.70
2017-10-19T15:50:32.034Z,16.70
2017-10-19T15:52:58.440Z,16.60
2017-10-19T15:55:24.802Z,16.20
2017-10-19T15:57:51.240Z,16.10
2017-10-19T16:00:17.603Z,15.90
2017-10-19T16:02:43.924Z,15.70
2017-10-19T16:05:10.976Z,15.40
2017-10-19T16:07:38.089Z,15.30
2017-10-19T16:10:04.408Z,15.20
2017-10-19T16:12:30.722Z,15.10
2017-10-19T16:14:57.111Z,15.00
2017-10-19T16:17:24.177Z,14.90
2017-10-19T16:19:50.541Z,14.80
2017-10-19T16:22:16.851Z,14.70
2017-10-19T16:24:44.150Z,14.60
2017-10-19T16:27:10.518Z,14.50
2017-10-19T16:29:37.623Z,14.30
2017-10-19T16:32:03.980Z,14.30
2017-10-19T16:34:31.028Z,14.20
2017-10-19T16:36:57.329Z,14.10
2017-10-19T16:39:23.657Z,14.10
2017-10-19T16:41:50.032Z,14.00
2017-10-19T16:44:21.415Z,14.00
2017-10-19T16:46:50.313Z,14.00
2017-10-19T16:51:50.872Z,13.80
2017-10-19T16:54:17.164Z,13.80
2017-10-19T16:56:43.512Z,13.70
2017-10-19T16:59:10.011Z,13.70
2017-10-19T17:01:37.154Z,13.50
2017-10-19T17:04:04.546Z,13.40
2017-10-19T17:06:31.054Z,13.40
2017-10-19T17:08:58.163Z,13.40
2017-10-19T17:11:24.475Z,13.30
2017-10-19T17:13:50.821Z,13.30
2017-10-19T17:16:17.292Z,13.20
2017-10-19T17:18:43.668Z,13.10
2017-10-19T17:21:10.060Z,13.00
2017-10-19T17:23:36.385Z,13.00
2017-10-19T17:26:02.842Z,12.90
2017-10-19T17:28:30.065Z,12.90
2017-10-19T17:30:58.210Z,12.80
2017-10-19T17:33:24.735Z,12.80
2017-10-19T17:35:51.078Z,12.80
2017-10-19T17:38:18.267Z,12.70
2017-10-19T17:40:44.719Z,12.70
2017-10-19T17:43:11.826Z,12.60
2017-10-19T17:45:38.298Z,12.60
2017-10-19T17:48:05.378Z,12.50
2017-10-19T17:50:31.750Z,12.50
2017-10-19T17:52:58.136Z,12.40
2017-10-19T17:55:24.504Z,12.40
2017-10-19T17:57:50.889Z,12.40
2017-10-19T18:00:17.237Z,12.40
2017-10-19T18:02:43.533Z,12.30
2017-10-19T18:05:09.887Z,12.30
2017-10-19T18:07:36.233Z,12.20
2017-10-19T18:10:03.250Z,12.20
2017-10-19T18:12:30.335Z,12.10
2017-10-19T18:14:56.686Z,12.10
2017-10-19T18:17:22.996Z,12.00
2017-10-19T18:19:49.303Z,12.00
2017-10-19T18:22:15.582Z,12.00
2017-10-19T18:24:41.924Z,11.90
2017-10-19T18:27:09.844Z,11.90
2017-10-19T18:29:36.257Z,11.90
2017-10-19T18:32:03.347Z,11.80
2017-10-19T18:34:29.691Z,11.80
2017-10-19T18:36:55.958Z,11.80
2017-10-19T18:39:22.299Z,11.70
2017-10-19T18:41:49.366Z,11.70
2017-10-19T18:44:15.760Z,11.70
2017-10-19T18:46:42.251Z,11.70
2017-10-19T18:49:08.705Z,11.60
2017-10-19T18:51:35.048Z,11.60
2017-10-19T18:54:01.388Z,11.60
2017-10-19T18:56:27.747Z,11.50
2017-10-19T18:58:54.129Z,11.50
2017-10-19T19:01:20.926Z,11.50
2017-10-19T19:03:48.382Z,11.50
2017-10-19T19:06:15.640Z,11.40
2017-10-19T19:08:42.031Z,11.40
2017-10-19T19:11:08.528Z,11.40
2017-10-19T19:13:35.987Z,11.40
2017-10-19T19:16:04.774Z,11.30
2017-10-19T19:18:31.153Z,11.30
2017-10-19T19:20:58.279Z,11.30
2017-10-19T19:23:24.715Z,11.30
2017-10-19T19:25:51.427Z,11.30
2017-10-19T19:28:17.957Z,11.30
2017-10-19T19:30:44.315Z,11.30
2017-10-19T19:33:11.424Z,11.20
2017-10-19T19:35:38.570Z,11.30
2017-10-19T19:38:06.522Z,11.30
2017-10-19T19:40:33.560Z,11.30
2017-10-19T19:42:59.992Z,11.20
2017-10-19T19:45:26.361Z,11.20
2017-10-19T19:47:52.843Z,11.30
2017-10-19T19:50:19.147Z,11.30
2017-10-19T19:52:45.505Z,11.30
2017-10-19T19:55:11.793Z,11.30
2017-10-19T19:57:39.108Z,11.30
2017-10-19T20:00:05.440Z,11.20
2017-10-19T20:02:31.875Z,11.20
2017-10-19T20:04:58.196Z,11.20
2017-10-19T20:07:24.489Z,11.30
2017-10-19T20:09:50.890Z,11.30
2017-10-19T20:12:17.966Z,11.50
2017-10-19T20:14:44.296Z,11.50
2017-10-19T20:17:10.598Z,11.60
2017-10-19T20:19:37.670Z,11.60
2017-10-19T20:22:04.116Z,11.60
2017-10-19T20:24:30.605Z,11.60
2017-10-19T20:26:57.028Z,11.70
2017-10-19T20:29:23.477Z,11.80
2017-10-19T20:31:49.784Z,11.80
2017-10-19T20:34:16.077Z,11.80
2017-10-19T20:36:42.551Z,11.90
2017-10-19T20:39:08.890Z,11.90
2017-10-19T20:41:35.440Z,12.00
2017-10-19T20:44:01.900Z,11.90
2017-10-19T20:46:28.260Z,11.90
2017-10-19T20:48:54.583Z,11.90
2017-10-19T20:51:21.068Z,11.90
2017-10-19T20:53:47.381Z,11.90
2017-10-19T20:56:13.755Z,11.90
2017-10-19T20:58:40.076Z,11.90
2017-10-19T21:01:07.235Z,11.90
2017-10-19T21:03:33.797Z,11.90
2017-10-19T21:06:00.217Z,11.80
2017-10-19T21:08:26.827Z,12.00
2017-10-19T21:10:53.911Z,12.00
2017-10-19T21:13:20.314Z,12.00
2017-10-19T21:15:47.489Z,12.00
2017-10-19T21:18:13.816Z,11.90
2017-10-19T21:20:40.175Z,11.90
2017-10-19T21:23:06.700Z,11.90
2017-10-19T21:25:33.064Z,12.00
2017-10-19T21:27:59.461Z,11.90
2017-10-19T21:30:25.826Z,12.00
2017-10-19T21:32:52.326Z,12.00
2017-10-19T21:35:18.694Z,12.00
2017-10-19T21:37:45.045Z,12.00
2017-10-19T21:40:11.381Z,12.10
2017-10-19T21:42:37.787Z,12.10
2017-10-19T21:45:04.207Z,12.20
2017-10-19T21:47:30.690Z,12.20
2017-10-19T21:49:57.758Z,12.20
2017-10-19T21:52:24.115Z,12.20
2017-10-19T21:54:50.533Z,12.20
2017-10-19T21:57:16.868Z,12.20
2017-10-19T21:59:43.210Z,12.20
2017-10-19T22:02:09.604Z,12.20
2017-10-19T22:04:36.721Z,12.20
2017-10-19T22:07:03.089Z,12.20
2017-10-19T22:09:29.963Z,12.20
2017-10-19T22:11:56.309Z,12.30
2017-10-19T22:14:22.673Z,12.30
2017-10-19T22:16:48.973Z,12.30
2017-10-19T22:19:15.361Z,12.30
2017-10-19T22:21:42.424Z,12.30
2017-10-19T22:24:08.801Z,12.30
2017-10-19T22:26:35.165Z,12.30
2017-10-19T22:29:02.218Z,12.30
2017-10-19T22:31:29.368Z,12.30
2017-10-19T22:33:55.685Z,12.30
2017-10-19T22:36:22.126Z,12.20
2017-10-19T22:38:49.279Z,12.20
2017-10-19T22:41:15.617Z,12.10
2017-10-19T22:43:42.754Z,12.20
2017-10-19T22:46:09.914Z,12.10
2017-10-19T22:48:36.995Z,12.00
2017-10-19T22:51:03.400Z,12.00
2017-10-19T22:53:30.509Z,11.90
2017-10-19T22:55:56.810Z,11.90
2017-10-19T22:58:23.141Z,11.80
2017-10-19T23:00:49.494Z,11.80
2017-10-19T23:03:16.657Z,11.70
2017-10-19T23:05:43.056Z,11.60
2017-10-19T23:08:09.455Z,11.60
2017-10-19T23:10:36.573Z,11.60
2017-10-19T23:13:02.960Z,11.50
2017-10-19T23:15:29.338Z,11.50
2017-10-19T23:17:55.663Z,11.40
2017-10-19T23:20:22.170Z,11.50
2017-10-19T23:22:48.529Z,11.50
2017-10-19T23:25:14.923Z,11.40
2017-10-19T23:27:41.311Z,11.40
2017-10-19T23:30:07.670Z,11.30
2017-10-19T23:32:34.798Z,11.20
2017-10-19T23:35:01.264Z,11.20
2017-10-19T23:37:27.619Z,11.30
2017-10-19T23:39:53.982Z,11.20
2017-10-19T23:42:20.330Z,11.20
2017-10-19T23:44:46.834Z,11.20
2017-10-19T23:47:13.179Z,11.20
2017-10-19T23:49:39.594Z,11.20
2017-10-19T23:52:05.949Z,11.10
2017-10-19T23:54:32.322Z,11.10
2017-10-19T23:56:58.660Z,11.00
2017-10-19T23:59:25.019Z,11.00
